Time;durP1;ratioP1;P1;durP2;ratioP2;P2;SDS_P1;SDS_P2;PMS_P1;PMS_P2;Temp;Humidity;BMP_temperature;BMP_pressure;BME280_temperature;BME280_humidity;BME280_pressure;Samples;Min_cycle;Max_cycle;Signal;HPM_P1;HPM_P2
2023/10/04 00:04:30;;;;;;;9.82;6.07;;;;;;;;;;10290669;28;20528;-70
2023/10/04 00:09:28;;;;;;;14.15;6.78;;;;;;;;;;10290623;28;20071;-69
2023/10/04 00:14:30;;;;;;;12.65;7.28;;;;;;;;;;10288691;28;20068;-70
2023/10/04 00:19:31;;;;;;;19.30;7.32;;;;;;;;;;10287720;28;20478;-70
2023/10/04 00:24:31;;;;;;;10.20;6.35;;;;;;;;;;10288080;28;20060;-70
2023/10/04 00:29:29;;;;;;;11.75;6.35;;;;;;;;;;10289669;28;20076;-70
2023/10/04 00:34:28;;;;;;;11.68;6.43;;;;;;;;;;10288391;28;20087;-70
2023/10/04 00:39:28;;;;;;;11.40;6.22;;;;;;;;;;10289780;28;20060;-70
2023/10/04 00:44:27;;;;;;;9.10;6.30;;;;;;;;;;10290466;28;20060;-70
2023/10/04 00:49:25;;;;;;;14.38;6.75;;;;;;;;;;10291724;28;20510;-70
2023/10/04 00:54:23;;;;;;;11.13;7.15;;;;;;;;;;10289208;28;20044;-69
2023/10/04 00:59:23;;;;;;;8.77;5.82;;;;;;;;;;10289697;28;20447;-70
2023/10/04 01:04:21;;;;;;;11.68;6.10;;;;;;;;;;10294344;28;20173;-69
2023/10/04 01:09:22;;;;;;;11.27;6.43;;;;;;;;;;10296699;28;20071;-69
2023/10/04 01:14:25;;;;;;;16.08;6.57;;;;;;;;;;10310873;28;20425;-69
2023/10/04 01:19:25;;;;;;;16.35;6.68;;;;;;;;;;10295627;28;20511;-69
2023/10/04 01:24:26;;;;;;;13.15;7.20;;;;;;;;;;10291624;28;20052;-69
2023/10/04 01:29:24;;;;;;;12.35;6.50;;;;;;;;;;10310407;28;20076;-70
2023/10/04 01:34:22;;;;;;;15.85;6.50;;;;;;;;;;10297115;28;20078;-69
2023/10/04 01:39:22;;;;;;;11.23;6.38;;;;;;;;;;10296669;28;20528;-70
2023/10/04 01:44:22;;;;;;;13.85;6.65;;;;;;;;;;10295132;28;20521;-70
2023/10/04 01:49:20;;;;;;;9.80;6.53;;;;;;;;;;10297552;28;20107;-70
2023/10/04 01:54:18;;;;;;;13.23;7.20;;;;;;;;;;10295058;28;20065;-68
2023/10/04 01:59:17;;;;;;;8.88;5.93;;;;;;;;;;10294531;28;20068;-69
2023/10/04 02:04:17;;;;;;;11.10;6.22;;;;;;;;;;10295384;28;20528;-69
2023/10/04 02:09:16;;;;;;;9.48;6.22;;;;;;;;;;10293491;28;20486;-69
2023/10/04 02:14:15;;;;;;;11.38;6.68;;;;;;;;;;10293890;28;20087;-69
2023/10/04 02:19:13;;;;;;;11.32;6.05;;;;;;;;;;10293528;28;20494;-68
2023/10/04 02:24:13;;;;;;;13.85;6.03;;;;;;;;;;10294659;28;20071;-69
2023/10/04 02:29:12;;;;;;;10.50;6.38;;;;;;;;;;10299667;28;20083;-69
2023/10/04 02:34:12;;;;;;;12.25;6.97;;;;;;;;;;10294842;28;20068;-69
2023/10/04 02:39:11;;;;;;;11.55;6.60;;;;;;;;;;10294831;28;20467;-69
2023/10/04 02:44:11;;;;;;;11.85;6.35;;;;;;;;;;10300113;28;20048;-68
2023/10/04 02:49:09;;;;;;;13.15;7.05;;;;;;;;;;10299293;28;20098;-69
2023/10/04 02:54:08;;;;;;;11.95;6.00;;;;;;;;;;10304205;28;20068;-69
2023/10/04 02:59:06;;;;;;;12.27;7.30;;;;;;;;;;10292891;28;20069;-69
2023/10/04 03:04:09;;;;;;;11.98;5.80;;;;;;;;;;10292499;28;20065;-69
2023/10/04 03:09:09;;;;;;;11.40;6.50;;;;;;;;;;10291384;28;20091;-70
2023/10/04 03:14:07;;;;;;;10.70;6.38;;;;;;;;;;10298813;28;20077;-69
2023/10/04 03:19:10;;;;;;;9.68;5.97;;;;;;;;;;10292749;28;20060;-69
2023/10/04 03:24:10;;;;;;;11.13;6.15;;;;;;;;;;10270707;28;20079;-69
2023/10/04 03:29:11;;;;;;;11.00;6.85;;;;;;;;;;10272612;28;20075;-70
2023/10/04 03:34:11;;;;;;;18.38;6.95;;;;;;;;;;10304462;28;20072;-69
2023/10/04 03:39:12;;;;;;;13.95;6.45;;;;;;;;;;10274380;28;20532;-69
2023/10/04 03:44:16;;;;;;;11.25;6.85;;;;;;;;;;10285109;28;20091;-69
2023/10/04 03:49:19;;;;;;;14.43;6.97;;;;;;;;;;10301653;28;20528;-69
2023/10/04 03:54:18;;;;;;;13.25;6.80;;;;;;;;;;10271324;28;20076;-69
2023/10/04 03:59:18;;;;;;;11.35;6.15;;;;;;;;;;10287718;28;20079;-69
2023/10/04 04:04:18;;;;;;;14.85;6.97;;;;;;;;;;10287993;28;20087;-69
2023/10/04 04:09:17;;;;;;;10.70;6.53;;;;;;;;;;10287708;28;20525;-69
2023/10/04 04:14:18;;;;;;;10.27;6.72;;;;;;;;;;10288385;28;20083;-70
2023/10/04 04:19:22;;;;;;;11.35;6.63;;;;;;;;;;10277671;28;20080;-70
2023/10/04 04:24:23;;;;;;;12.18;6.15;;;;;;;;;;10275373;28;20107;-69
2023/10/04 04:29:22;;;;;;;12.25;5.88;;;;;;;;;;10271983;28;20183;-70
2023/10/04 04:34:22;;;;;;;12.73;7.00;;;;;;;;;;10293136;28;20420;-71
2023/10/04 04:39:28;;;;;;;9.88;6.95;;;;;;;;;;10281641;28;20091;-69
2023/10/04 04:44:35;;;;;;;14.10;6.13;;;;;;;;;;10310767;28;20491;-69
2023/10/04 04:49:36;;;;;;;14.27;7.95;;;;;;;;;;10295231;28;20065;-69
2023/10/04 04:54:35;;;;;;;10.85;6.75;;;;;;;;;;10294301;28;20072;-68
2023/10/04 04:59:35;;;;;;;10.85;6.63;;;;;;;;;;10288764;28;20073;-69
2023/10/04 05:04:34;;;;;;;9.40;6.25;;;;;;;;;;10275023;28;20488;-68
2023/10/04 05:09:34;;;;;;;16.92;6.57;;;;;;;;;;10291131;28;20068;-69
2023/10/04 05:14:32;;;;;;;12.63;7.03;;;;;;;;;;10290035;28;20083;-69
2023/10/04 05:19:31;;;;;;;15.30;7.18;;;;;;;;;;10293098;28;20496;-69
2023/10/04 05:24:30;;;;;;;13.35;6.13;;;;;;;;;;10296931;28;20087;-70
2023/10/04 05:29:32;;;;;;;11.02;6.68;;;;;;;;;;10297372;28;20087;-70
2023/10/04 05:34:31;;;;;;;9.85;6.00;;;;;;;;;;10295817;28;20067;-69
2023/10/04 05:39:32;;;;;;;11.88;6.95;;;;;;;;;;10307290;28;20106;-69
2023/10/04 05:44:32;;;;;;;15.02;8.02;;;;;;;;;;10292391;28;20079;-70
2023/10/04 05:49:31;;;;;;;10.55;6.70;;;;;;;;;;10290344;28;20491;-70
2023/10/04 05:54:30;;;;;;;10.38;6.50;;;;;;;;;;10287786;28;20477;-70
2023/10/04 05:59:31;;;;;;;13.20;6.18;;;;;;;;;;10286010;28;20069;-71
2023/10/04 06:04:31;;;;;;;13.63;6.75;;;;;;;;;;10285154;28;20072;-71
2023/10/04 06:09:32;;;;;;;13.55;7.28;;;;;;;;;;10275703;28;20490;-71
2023/10/04 06:14:30;;;;;;;10.18;6.45;;;;;;;;;;10284405;28;20095;-71
2023/10/04 06:19:29;;;;;;;11.40;7.07;;;;;;;;;;10273454;28;20391;-70
2023/10/04 06:24:30;;;;;;;9.88;6.43;;;;;;;;;;10288148;28;20529;-70
2023/10/04 06:29:29;;;;;;;11.48;6.40;;;;;;;;;;10280851;28;20076;-70
2023/10/04 06:34:28;;;;;;;17.15;6.97;;;;;;;;;;10269475;28;20057;-69
2023/10/04 06:39:27;;;;;;;14.27;6.60;;;;;;;;;;10277988;28;20530;-70
2023/10/04 06:44:27;;;;;;;16.30;6.28;;;;;;;;;;10289377;28;20076;-70
2023/10/04 06:49:26;;;;;;;11.13;6.65;;;;;;;;;;10286300;28;20390;-69
2023/10/04 06:54:24;;;;;;;11.77;7.15;;;;;;;;;;10290494;28;20072;-69
2023/10/04 06:59:22;;;;;;;15.40;7.13;;;;;;;;;;10290951;28;20068;-70
2023/10/04 07:04:22;;;;;;;14.77;7.38;;;;;;;;;;10291857;28;20080;-69
2023/10/04 07:09:20;;;;;;;14.65;7.47;;;;;;;;;;10292058;28;20091;-70
2023/10/04 07:14:19;;;;;;;36.97;9.10;;;;;;;;;;10289603;28;20083;-69
2023/10/04 07:19:17;;;;;;;20.25;8.77;;;;;;;;;;10292354;28;20072;-71
2023/10/04 07:24:17;;;;;;;20.20;8.50;;;;;;;;;;10292217;28;20072;-70
2023/10/04 07:29:15;;;;;;;16.63;7.55;;;;;;;;;;10292042;28;20072;-70
2023/10/04 07:34:13;;;;;;;15.45;7.18;;;;;;;;;;10292390;28;20464;-70
2023/10/04 07:39:15;;;;;;;12.15;6.70;;;;;;;;;;10290054;28;20068;-70
2023/10/04 07:44:16;;;;;;;12.15;7.43;;;;;;;;;;10299870;28;20080;-70
2023/10/04 07:49:14;;;;;;;11.52;6.78;;;;;;;;;;10290343;28;20118;-70
2023/10/04 07:54:12;;;;;;;13.73;6.97;;;;;;;;;;10291948;28;20481;-70
2023/10/04 07:59:11;;;;;;;12.18;7.13;;;;;;;;;;10290863;28;20064;-69
2023/10/04 08:04:11;;;;;;;17.42;7.45;;;;;;;;;;10288492;28;20071;-70
2023/10/04 08:09:10;;;;;;;10.75;6.50;;;;;;;;;;10289307;28;20160;-70
2023/10/04 08:14:09;;;;;;;14.57;7.00;;;;;;;;;;10289006;28;20076;-70
2023/10/04 08:19:08;;;;;;;11.50;6.75;;;;;;;;;;10290339;28;20076;-70
2023/10/04 08:24:08;;;;;;;13.43;7.18;;;;;;;;;;10289336;28;20079;-70
2023/10/04 08:29:07;;;;;;;21.75;8.23;;;;;;;;;;10290734;28;20094;-68
2023/10/04 08:34:05;;;;;;;9.10;7.40;;;;;;;;;;10290130;28;20071;-70
2023/10/04 08:39:10;;;;;;;12.82;8.43;;;;;;;;;;10292404;28;20079;-70
2023/10/04 08:44:11;;;;;;;14.68;8.35;;;;;;;;;;10288059;28;20065;-70
2023/10/04 08:49:11;;;;;;;13.52;6.95;;;;;;;;;;10285970;28;20072;-70
2023/10/04 08:54:12;;;;;;;14.43;8.57;;;;;;;;;;10288971;28;20064;-71
2023/10/04 08:59:12;;;;;;;16.75;7.85;;;;;;;;;;10288014;28;20413;-71
2023/10/04 09:04:13;;;;;;;12.32;7.53;;;;;;;;;;10289939;28;20069;-69
2023/10/04 09:09:15;;;;;;;14.90;8.38;;;;;;;;;;10289567;28;20073;-69
2023/10/04 09:14:15;;;;;;;13.32;7.70;;;;;;;;;;10289009;28;20080;-71
2023/10/04 09:19:17;;;;;;;16.83;9.70;;;;;;;;;;10289967;28;20068;-69
2023/10/04 09:24:16;;;;;;;16.58;7.75;;;;;;;;;;10291837;28;20068;-70
2023/10/04 09:29:28;;;;;;;24.20;16.90;;;;;;;;;;10296863;28;20497;-69
2023/10/04 09:34:28;;;;;;;15.50;7.80;;;;;;;;;;10294667;28;20462;-69
2023/10/04 09:39:28;;;;;;;12.27;7.28;;;;;;;;;;10297069;28;20072;-70
2023/10/04 09:44:29;;;;;;;13.23;7.43;;;;;;;;;;10295315;28;20530;-69
2023/10/04 09:49:29;;;;;;;13.85;7.32;;;;;;;;;;10296575;28;20083;-69
2023/10/04 09:54:27;;;;;;;14.90;7.93;;;;;;;;;;10296250;28;20068;-69
2023/10/04 09:59:26;;;;;;;11.07;7.70;;;;;;;;;;10294782;28;20597;-69
2023/10/04 10:04:26;;;;;;;21.55;10.13;;;;;;;;;;10290320;28;20541;-69
2023/10/04 10:09:25;;;;;;;12.45;9.18;;;;;;;;;;10294531;28;20072;-69
2023/10/04 10:14:27;;;;;;;16.15;10.70;;;;;;;;;;10294002;28;20080;-69
2023/10/04 10:19:28;;;;;;;15.15;10.48;;;;;;;;;;10295066;28;20075;-69
2023/10/04 10:24:26;;;;;;;13.20;10.68;;;;;;;;;;10294931;28;20076;-69
2023/10/04 10:29:29;;;;;;;17.15;10.52;;;;;;;;;;10293537;28;20084;-69
2023/10/04 10:34:29;;;;;;;24.80;10.77;;;;;;;;;;10295193;28;20075;-68
2023/10/04 10:39:30;;;;;;;16.38;10.10;;;;;;;;;;10294664;28;20071;-69
2023/10/04 10:44:33;;;;;;;12.35;9.27;;;;;;;;;;10294290;28;20517;-69
2023/10/04 10:49:40;;;;;;;17.30;9.75;;;;;;;;;;10293597;28;20078;-69
2023/10/04 10:54:39;;;;;;;17.17;9.63;;;;;;;;;;10293060;28;20068;-69
2023/10/04 10:59:38;;;;;;;14.05;8.75;;;;;;;;;;10294638;28;20064;-70
2023/10/04 11:04:36;;;;;;;16.48;9.40;;;;;;;;;;10292621;28;20060;-70
2023/10/04 11:09:39;;;;;;;12.88;9.18;;;;;;;;;;10298448;28;20087;-69
2023/10/04 11:14:45;;;;;;;15.35;9.13;;;;;;;;;;10292804;28;20072;-70
2023/10/04 11:19:44;;;;;;;11.77;9.82;;;;;;;;;;10291006;28;20080;-68
2023/10/04 11:24:44;;;;;;;25.98;9.70;;;;;;;;;;10292291;28;20060;-69
2023/10/04 11:29:43;;;;;;;14.20;9.15;;;;;;;;;;10286231;28;20552;-69
2023/10/04 11:34:43;;;;;;;28.63;11.82;;;;;;;;;;10287825;28;20061;-69
2023/10/04 11:39:45;;;;;;;12.25;7.75;;;;;;;;;;10290325;28;20119;-68
2023/10/04 11:44:43;;;;;;;17.90;9.18;;;;;;;;;;10290960;28;20556;-69
2023/10/04 11:49:54;;;;;;;15.50;9.73;;;;;;;;;;10290199;28;20529;-69
2023/10/04 11:54:54;;;;;;;18.25;11.18;;;;;;;;;;10288803;28;20522;-69
2023/10/04 11:59:56;;;;;;;13.82;9.55;;;;;;;;;;10290077;28;20608;-69
2023/10/04 12:04:54;;;;;;;23.65;10.15;;;;;;;;;;10288866;28;20522;-69
2023/10/04 12:09:54;;;;;;;13.32;9.75;;;;;;;;;;10292724;28;20065;-69
2023/10/04 12:14:53;;;;;;;15.30;10.77;;;;;;;;;;10289450;28;20092;-70
2023/10/04 12:19:53;;;;;;;18.95;10.30;;;;;;;;;;10288155;28;20097;-70
2023/10/04 12:24:51;;;;;;;16.60;10.68;;;;;;;;;;10291777;28;20079;-70
2023/10/04 12:29:51;;;;;;;17.33;9.52;;;;;;;;;;10289031;28;20068;-69
2023/10/04 12:34:49;;;;;;;15.40;10.30;;;;;;;;;;10290452;28;20045;-70
2023/10/04 12:39:47;;;;;;;14.82;9.85;;;;;;;;;;10291345;28;20067;-69
2023/10/04 12:44:46;;;;;;;23.45;10.65;;;;;;;;;;10287333;28;20068;-69
2023/10/04 12:49:45;;;;;;;18.27;10.13;;;;;;;;;;10290336;28;20076;-68
2023/10/04 12:54:44;;;;;;;19.83;9.70;;;;;;;;;;10289935;28;20095;-69
2023/10/04 12:59:42;;;;;;;14.60;9.88;;;;;;;;;;10296210;28;20060;-69
2023/10/04 13:04:41;;;;;;;19.67;10.80;;;;;;;;;;10304286;28;20072;-69
2023/10/04 13:09:44;;;;;;;12.10;9.57;;;;;;;;;;10294590;28;20053;-68
2023/10/04 13:14:56;;;;;;;16.33;8.20;;;;;;;;;;10294791;28;20084;-67
2023/10/04 13:19:54;;;;;;;27.13;9.27;;;;;;;;;;10297941;28;20110;-69
2023/10/04 13:24:54;;;;;;;19.40;8.48;;;;;;;;;;10296160;28;20068;-69
2023/10/04 13:29:54;;;;;;;18.38;9.77;;;;;;;;;;10299316;28;20085;-69
2023/10/04 13:34:52;;;;;;;20.15;9.40;;;;;;;;;;10295457;28;20060;-69
2023/10/04 13:39:50;;;;;;;17.30;8.43;;;;;;;;;;10292374;28;20072;-69
2023/10/04 13:44:50;;;;;;;17.33;9.60;;;;;;;;;;10297219;28;20103;-69
2023/10/04 13:49:50;;;;;;;13.00;9.05;;;;;;;;;;10296203;28;20061;-69
2023/10/04 13:54:51;;;;;;;24.50;9.73;;;;;;;;;;10296896;28;20065;-68
2023/10/04 13:59:55;;;;;;;15.27;7.60;;;;;;;;;;10296643;28;20072;-69
2023/10/04 14:04:54;;;;;;;17.25;7.55;;;;;;;;;;10295628;28;20057;-68
2023/10/04 14:09:52;;;;;;;12.95;7.88;;;;;;;;;;10296166;28;20068;-69
2023/10/04 14:14:52;;;;;;;11.52;7.07;;;;;;;;;;10294538;28;20080;-69
2023/10/04 14:19:51;;;;;;;11.02;8.32;;;;;;;;;;10293576;28;20501;-69
2023/10/04 14:24:50;;;;;;;11.05;6.68;;;;;;;;;;10292726;28;20087;-69
2023/10/04 14:29:49;;;;;;;16.55;8.15;;;;;;;;;;10293133;28;20075;-69
2023/10/04 14:34:50;;;;;;;15.85;8.43;;;;;;;;;;10294911;28;20068;-69
2023/10/04 14:39:50;;;;;;;13.32;7.85;;;;;;;;;;10290914;28;20064;-70
2023/10/04 14:44:48;;;;;;;11.05;6.85;;;;;;;;;;10292896;28;20061;-69
2023/10/04 14:49:47;;;;;;;11.35;8.05;;;;;;;;;;10291634;28;20076;-69
2023/10/04 14:54:45;;;;;;;13.82;7.60;;;;;;;;;;10277399;28;20061;-67
2023/10/04 14:59:44;;;;;;;11.68;7.57;;;;;;;;;;10275363;28;20155;-70
2023/10/04 15:04:43;;;;;;;9.27;7.38;;;;;;;;;;10280130;28;20068;-71
2023/10/04 15:09:42;;;;;;;30.25;10.48;;;;;;;;;;10271537;28;20073;-71
2023/10/04 15:14:41;;;;;;;33.88;10.02;;;;;;;;;;10274585;28;20084;-71
2023/10/04 15:19:40;;;;;;;16.40;8.85;;;;;;;;;;10278286;28;20063;-70
2023/10/04 15:24:39;;;;;;;19.23;8.55;;;;;;;;;;10288381;28;20072;-71
2023/10/04 15:29:38;;;;;;;22.48;8.82;;;;;;;;;;10278733;28;20072;-70
2023/10/04 15:34:36;;;;;;;18.73;9.70;;;;;;;;;;10274148;28;20091;-69
2023/10/04 15:39:36;;;;;;;14.88;8.30;;;;;;;;;;10269962;28;20068;-69
2023/10/04 15:44:35;;;;;;;19.65;8.50;;;;;;;;;;10270439;28;20479;-69
2023/10/04 15:49:34;;;;;;;17.75;8.95;;;;;;;;;;10272884;28;20064;-70
2023/10/04 15:54:32;;;;;;;19.67;9.57;;;;;;;;;;10263763;28;20615;-69
2023/10/04 15:59:32;;;;;;;22.35;9.25;;;;;;;;;;10277650;28;20068;-69
2023/10/04 16:04:30;;;;;;;19.80;9.88;;;;;;;;;;10276965;28;20071;-70
2023/10/04 16:09:29;;;;;;;23.45;9.77;;;;;;;;;;10269908;28;20065;-70
2023/10/04 16:14:28;;;;;;;22.38;9.35;;;;;;;;;;10275539;28;20532;-70
2023/10/04 16:19:30;;;;;;;20.15;9.73;;;;;;;;;;10268465;28;20485;-69
2023/10/04 16:24:31;;;;;;;21.20;10.05;;;;;;;;;;10287902;28;20067;-71
2023/10/04 16:29:29;;;;;;;17.38;8.65;;;;;;;;;;10273628;28;20057;-66
2023/10/04 16:34:30;;;;;;;18.60;8.75;;;;;;;;;;10276416;28;20437;-69
2023/10/04 16:39:28;;;;;;;17.98;9.85;;;;;;;;;;10288301;28;20166;-69
2023/10/04 16:44:27;;;;;;;25.83;9.35;;;;;;;;;;10279130;28;20080;-69
2023/10/04 16:49:25;;;;;;;24.35;9.90;;;;;;;;;;10281071;28;20080;-70
2023/10/04 16:54:24;;;;;;;15.40;9.20;;;;;;;;;;10286254;28;20079;-68
2023/10/04 16:59:23;;;;;;;15.43;8.57;;;;;;;;;;10298363;28;20064;-68
2023/10/04 17:04:22;;;;;;;13.30;9.35;;;;;;;;;;10290700;28;20064;-68
2023/10/04 17:09:20;;;;;;;17.98;8.77;;;;;;;;;;10287173;28;20068;-69
2023/10/04 17:14:20;;;;;;;19.95;9.07;;;;;;;;;;10291840;28;20081;-69
2023/10/04 17:19:18;;;;;;;18.80;8.50;;;;;;;;;;10295664;28;20076;-70
2023/10/04 17:24:16;;;;;;;14.60;8.38;;;;;;;;;;10293356;28;20087;-70
2023/10/04 17:29:17;;;;;;;20.88;10.25;;;;;;;;;;10294195;28;20071;-69
2023/10/04 17:34:17;;;;;;;18.58;8.45;;;;;;;;;;10295212;28;20084;-69
2023/10/04 17:39:16;;;;;;;16.70;8.90;;;;;;;;;;10295674;28;20064;-69
2023/10/04 17:44:14;;;;;;;17.60;9.05;;;;;;;;;;10293381;28;20526;-69
2023/10/04 17:49:12;;;;;;;12.98;8.57;;;;;;;;;;10294699;28;20068;-69
2023/10/04 17:54:12;;;;;;;14.50;8.40;;;;;;;;;;10283109;28;20462;-69
2023/10/04 17:59:11;;;;;;;11.30;7.90;;;;;;;;;;10283831;28;20498;-69
2023/10/04 18:04:09;;;;;;;16.25;8.07;;;;;;;;;;10291951;28;20082;-69
2023/10/04 18:09:09;;;;;;;15.63;8.40;;;;;;;;;;10286859;28;20065;-68
2023/10/04 18:14:09;;;;;;;12.48;8.75;;;;;;;;;;10292748;28;20119;-69
2023/10/04 18:19:09;;;;;;;11.48;8.30;;;;;;;;;;10294959;28;20069;-69
2023/10/04 18:24:09;;;;;;;15.77;8.13;;;;;;;;;;10290427;28;20090;-67
2023/10/04 18:29:09;;;;;;;16.73;9.20;;;;;;;;;;10286736;28;20079;-68
2023/10/04 18:34:07;;;;;;;14.95;8.27;;;;;;;;;;10290963;28;20080;-69
2023/10/04 18:39:06;;;;;;;15.55;9.10;;;;;;;;;;10290749;28;20065;-68
2023/10/04 18:44:05;;;;;;;20.42;8.05;;;;;;;;;;10291528;28;20079;-69
2023/10/04 18:49:07;;;;;;;11.63;8.20;;;;;;;;;;10275087;28;20064;-68
2023/10/04 18:54:05;;;;;;;11.98;7.40;;;;;;;;;;10289761;28;20083;-68
2023/10/04 18:59:04;;;;;;;17.52;9.23;;;;;;;;;;10286647;28;20064;-68
2023/10/04 19:04:03;;;;;;;22.58;8.55;;;;;;;;;;10284826;28;20081;-68
2023/10/04 19:09:05;;;;;;;17.00;9.05;;;;;;;;;;10288975;28;20068;-68
2023/10/04 19:14:03;;;;;;;13.10;8.85;;;;;;;;;;10282419;28;20084;-68
2023/10/04 19:19:03;;;;;;;9.68;7.97;;;;;;;;;;10284312;28;20056;-69
2023/10/04 19:24:03;;;;;;;13.45;8.55;;;;;;;;;;10288555;28;20075;-68
2023/10/04 19:29:02;;;;;;;12.98;9.45;;;;;;;;;;10291928;28;20107;-68
2023/10/04 19:34:00;;;;;;;13.43;8.25;;;;;;;;;;10291801;28;20080;-69
2023/10/04 19:38:58;;;;;;;14.40;8.77;;;;;;;;;;10286778;28;20079;-68
2023/10/04 19:43:59;;;;;;;14.32;8.55;;;;;;;;;;10290209;28;20072;-68
2023/10/04 19:48:58;;;;;;;17.08;8.63;;;;;;;;;;10287475;28;20080;-69
2023/10/04 19:53:57;;;;;;;14.15;8.52;;;;;;;;;;10284720;28;20080;-67
2023/10/04 19:58:56;;;;;;;16.83;8.48;;;;;;;;;;10289875;28;20053;-68
2023/10/04 20:03:56;;;;;;;13.95;7.55;;;;;;;;;;10277329;28;20087;-66
2023/10/04 20:08:54;;;;;;;12.98;8.45;;;;;;;;;;10272412;28;20480;-67
2023/10/04 20:13:54;;;;;;;15.18;8.52;;;;;;;;;;10273105;28;20080;-67
2023/10/04 20:18:52;;;;;;;21.65;8.48;;;;;;;;;;10276725;28;20092;-67
2023/10/04 20:23:53;;;;;;;15.00;7.82;;;;;;;;;;10279819;28;20065;-67
2023/10/04 20:28:52;;;;;;;18.45;7.90;;;;;;;;;;10255982;28;20084;-67
2023/10/04 20:33:50;;;;;;;14.23;7.28;;;;;;;;;;10269320;28;20509;-67
2023/10/04 20:38:49;;;;;;;23.88;12.07;;;;;;;;;;10269533;28;20084;-67
2023/10/04 20:43:48;;;;;;;27.77;14.75;;;;;;;;;;10272441;28;20087;-67
2023/10/04 20:48:47;;;;;;;27.48;10.95;;;;;;;;;;10270948;28;20069;-67
2023/10/04 20:53:45;;;;;;;29.27;12.43;;;;;;;;;;10269227;28;20064;-67
2023/10/04 20:58:43;;;;;;;22.88;11.68;;;;;;;;;;10270385;28;20079;-67
2023/10/04 21:03:43;;;;;;;18.75;11.27;;;;;;;;;;10269229;28;20085;-68
2023/10/04 21:08:41;;;;;;;15.45;11.27;;;;;;;;;;10269116;28;20563;-67
2023/10/04 21:13:41;;;;;;;20.92;10.80;;;;;;;;;;10265849;28;20089;-68
2023/10/04 21:18:39;;;;;;;18.75;10.32;;;;;;;;;;10271763;28;20072;-68
2023/10/04 21:23:40;;;;;;;14.18;10.27;;;;;;;;;;10275761;28;20072;-68
2023/10/04 21:28:39;;;;;;;24.55;10.32;;;;;;;;;;10280291;28;20045;-68
2023/10/04 21:33:37;;;;;;;21.75;10.68;;;;;;;;;;10275519;28;20131;-68
2023/10/04 21:38:39;;;;;;;20.42;12.65;;;;;;;;;;10280328;28;20071;-68
2023/10/04 21:43:39;;;;;;;21.75;13.30;;;;;;;;;;10280453;28;20064;-68
2023/10/04 21:48:40;;;;;;;22.42;15.75;;;;;;;;;;10275581;28;20077;-68
2023/10/04 21:53:41;;;;;;;23.10;14.02;;;;;;;;;;10292150;28;20072;-68
2023/10/04 21:58:44;;;;;;;21.80;12.00;;;;;;;;;;10275932;28;20056;-68
2023/10/04 22:03:44;;;;;;;16.23;11.30;;;;;;;;;;10276569;28;20073;-68
2023/10/04 22:08:47;;;;;;;22.20;10.57;;;;;;;;;;10273755;28;20064;-68
2023/10/04 22:13:47;;;;;;;14.60;9.43;;;;;;;;;;10288964;28;20081;-68
2023/10/04 22:18:45;;;;;;;16.08;10.35;;;;;;;;;;10282090;28;20068;-68
2023/10/04 22:23:44;;;;;;;19.70;9.63;;;;;;;;;;10274516;28;20469;-68
2023/10/04 22:28:42;;;;;;;17.88;9.82;;;;;;;;;;10289663;28;20081;-68
2023/10/04 22:33:42;;;;;;;15.15;9.15;;;;;;;;;;10273768;28;20482;-68
2023/10/04 22:38:40;;;;;;;21.20;9.15;;;;;;;;;;10272104;28;20077;-68
2023/10/04 22:43:39;;;;;;;12.73;7.85;;;;;;;;;;10273453;28;20076;-67
2023/10/04 22:48:41;;;;;;;17.00;8.50;;;;;;;;;;10275145;28;20076;-69
2023/10/04 22:53:40;;;;;;;20.85;8.15;;;;;;;;;;10272238;28;20072;-67
2023/10/04 22:58:41;;;;;;;15.18;7.90;;;;;;;;;;10274725;28;20064;-67
2023/10/04 23:03:39;;;;;;;16.92;7.72;;;;;;;;;;10272677;28;20075;-67
2023/10/04 23:08:43;;;;;;;18.15;7.78;;;;;;;;;;10275243;28;20105;-68
2023/10/04 23:13:43;;;;;;;15.07;7.72;;;;;;;;;;10273247;28;20080;-68
2023/10/04 23:18:45;;;;;;;15.18;7.50;;;;;;;;;;10272550;28;20079;-67
2023/10/04 23:23:51;;;;;;;28.10;9.02;;;;;;;;;;10277766;28;20071;-68
2023/10/04 23:28:50;;;;;;;16.45;7.32;;;;;;;;;;10270734;28;20075;-68
2023/10/04 23:33:52;;;;;;;15.20;7.93;;;;;;;;;;10271673;28;20073;-68
2023/10/04 23:38:53;;;;;;;12.63;7.95;;;;;;;;;;10272959;28;20084;-69
2023/10/04 23:43:52;;;;;;;30.67;7.40;;;;;;;;;;10271421;28;20068;-66
2023/10/04 23:48:50;;;;;;;19.02;6.90;;;;;;;;;;10271997;28;20080;-69
2023/10/04 23:53:57;;;;;;;22.48;7.60;;;;;;;;;;10271433;28;20503;-69
2023/10/04 23:58:57;;;;;;;14.90;7.80;;;;;;;;;;10272821;28;20076;-69
